sensor_id;sensor_type;location;lat;lon;timestamp;P1;durP1;ratioP1;P2;durP2;ratioP2
14100;SDS011;7127;49.372;8.166;2023-05-10T00:00:32;0.37;;;0.37;;
14100;SDS011;7127;49.372;8.166;2023-05-10T00:02:59;0.40;;;0.40;;
14100;SDS011;7127;49.372;8.166;2023-05-10T00:05:27;0.60;;;0.60;;
14100;SDS011;7127;49.372;8.166;2023-05-10T00:07:54;0.60;;;0.60;;
14100;SDS011;7127;49.372;8.166;2023-05-10T00:10:21;0.50;;;0.50;;
14100;SDS011;7127;49.372;8.166;2023-05-10T00:12:48;0.47;;;0.47;;
14100;SDS011;7127;49.372;8.166;2023-05-10T00:15:15;0.30;;;0.30;;
14100;SDS011;7127;49.372;8.166;2023-05-10T00:17:42;0.60;;;0.40;;
14100;SDS011;7127;49.372;8.166;2023-05-10T00:20:09;0.40;;;0.40;;
14100;SDS011;7127;49.372;8.166;2023-05-10T00:22:38;0.30;;;0.30;;
14100;SDS011;7127;49.372;8.166;2023-05-10T00:25:05;0.10;;;0.10;;
14100;SDS011;7127;49.372;8.166;2023-05-10T00:27:34;0.30;;;0.30;;
14100;SDS011;7127;49.372;8.166;2023-05-10T00:30:01;0.40;;;0.40;;
14100;SDS011;7127;49.372;8.166;2023-05-10T00:32:27;0.20;;;0.20;;
14100;SDS011;7127;49.372;8.166;2023-05-10T00:34:54;0.40;;;0.40;;
14100;SDS011;7127;49.372;8.166;2023-05-10T00:37:21;0.50;;;0.47;;
14100;SDS011;7127;49.372;8.166;2023-05-10T00:39:49;1.57;;;0.30;;
14100;SDS011;7127;49.372;8.166;2023-05-10T00:42:16;0.20;;;0.20;;
14100;SDS011;7127;49.372;8.166;2023-05-10T00:44:43;0.27;;;0.27;;
14100;SDS011;7127;49.372;8.166;2023-05-10T00:47:11;0.40;;;0.40;;
14100;SDS011;7127;49.372;8.166;2023-05-10T00:49:38;0.43;;;0.40;;
14100;SDS011;7127;49.372;8.166;2023-05-10T00:52:05;0.20;;;0.20;;
14100;SDS011;7127;49.372;8.166;2023-05-10T00:54:32;0.20;;;0.20;;
14100;SDS011;7127;49.372;8.166;2023-05-10T00:57:01;0.20;;;0.20;;
14100;SDS011;7127;49.372;8.166;2023-05-10T00:59:28;0.30;;;0.30;;
14100;SDS011;7127;49.372;8.166;2023-05-10T01:01:55;0.10;;;0.10;;
14100;SDS011;7127;49.372;8.166;2023-05-10T01:04:23;0.33;;;0.33;;
14100;SDS011;7127;49.372;8.166;2023-05-10T01:06:50;0.40;;;0.40;;
14100;SDS011;7127;49.372;8.166;2023-05-10T01:09:19;0.40;;;0.20;;
14100;SDS011;7127;49.372;8.166;2023-05-10T01:11:47;0.27;;;0.27;;
14100;SDS011;7127;49.372;8.166;2023-05-10T01:14:16;0.40;;;0.30;;
14100;SDS011;7127;49.372;8.166;2023-05-10T01:16:45;0.67;;;0.50;;
14100;SDS011;7127;49.372;8.166;2023-05-10T01:19:16;0.53;;;0.53;;
14100;SDS011;7127;49.372;8.166;2023-05-10T01:21:48;0.50;;;0.50;;
14100;SDS011;7127;49.372;8.166;2023-05-10T01:24:31;0.47;;;0.47;;
14100;SDS011;7127;49.372;8.166;2023-05-10T01:27:14;0.70;;;0.70;;
14100;SDS011;7127;49.372;8.166;2023-05-10T01:32:50;0.50;;;0.50;;
14100;SDS011;7127;49.372;8.166;2023-05-10T01:35:26;0.70;;;0.70;;
14100;SDS011;7127;49.372;8.166;2023-05-10T01:38:04;0.47;;;0.47;;
14100;SDS011;7127;49.372;8.166;2023-05-10T01:40:37;1.13;;;0.90;;
14100;SDS011;7127;49.372;8.166;2023-05-10T01:43:15;0.70;;;0.70;;
14100;SDS011;7127;49.372;8.166;2023-05-10T01:45:50;0.57;;;0.57;;
14100;SDS011;7127;49.372;8.166;2023-05-10T01:48:25;1.50;;;0.70;;
14100;SDS011;7127;49.372;8.166;2023-05-10T01:50:54;0.80;;;0.80;;
14100;SDS011;7127;49.372;8.166;2023-05-10T01:53:22;0.77;;;0.47;;
14100;SDS011;7127;49.372;8.166;2023-05-10T01:55:51;0.73;;;0.60;;
14100;SDS011;7127;49.372;8.166;2023-05-10T01:58:21;0.67;;;0.67;;
14100;SDS011;7127;49.372;8.166;2023-05-10T02:00:51;0.57;;;0.57;;
14100;SDS011;7127;49.372;8.166;2023-05-10T02:03:20;0.60;;;0.60;;
14100;SDS011;7127;49.372;8.166;2023-05-10T02:05:51;0.80;;;0.80;;
14100;SDS011;7127;49.372;8.166;2023-05-10T02:08:19;1.43;;;0.70;;
14100;SDS011;7127;49.372;8.166;2023-05-10T02:10:49;0.80;;;0.80;;
14100;SDS011;7127;49.372;8.166;2023-05-10T02:13:18;0.60;;;0.60;;
14100;SDS011;7127;49.372;8.166;2023-05-10T02:15:46;1.30;;;0.77;;
14100;SDS011;7127;49.372;8.166;2023-05-10T02:18:15;0.60;;;0.60;;
14100;SDS011;7127;49.372;8.166;2023-05-10T02:20:43;0.70;;;0.70;;
14100;SDS011;7127;49.372;8.166;2023-05-10T02:23:13;1.07;;;0.60;;
14100;SDS011;7127;49.372;8.166;2023-05-10T02:25:43;0.73;;;0.73;;
14100;SDS011;7127;49.372;8.166;2023-05-10T02:28:11;0.60;;;0.60;;
14100;SDS011;7127;49.372;8.166;2023-05-10T02:30:39;0.67;;;0.67;;
14100;SDS011;7127;49.372;8.166;2023-05-10T02:33:06;0.50;;;0.50;;
14100;SDS011;7127;49.372;8.166;2023-05-10T02:35:34;0.53;;;0.53;;
14100;SDS011;7127;49.372;8.166;2023-05-10T02:38:02;0.63;;;0.60;;
14100;SDS011;7127;49.372;8.166;2023-05-10T02:40:31;0.97;;;0.70;;
14100;SDS011;7127;49.372;8.166;2023-05-10T02:42:59;0.60;;;0.60;;
14100;SDS011;7127;49.372;8.166;2023-05-10T02:45:29;0.70;;;0.70;;
14100;SDS011;7127;49.372;8.166;2023-05-10T02:47:57;1.00;;;0.70;;
14100;SDS011;7127;49.372;8.166;2023-05-10T02:50:25;0.67;;;0.67;;
14100;SDS011;7127;49.372;8.166;2023-05-10T02:52:56;0.50;;;0.50;;
14100;SDS011;7127;49.372;8.166;2023-05-10T02:55:30;0.60;;;0.60;;
14100;SDS011;7127;49.372;8.166;2023-05-10T02:58:02;0.53;;;0.53;;
14100;SDS011;7127;49.372;8.166;2023-05-10T03:00:30;0.67;;;0.50;;
14100;SDS011;7127;49.372;8.166;2023-05-10T03:02:57;0.83;;;0.70;;
14100;SDS011;7127;49.372;8.166;2023-05-10T03:05:24;0.67;;;0.67;;
14100;SDS011;7127;49.372;8.166;2023-05-10T03:07:51;1.13;;;0.60;;
14100;SDS011;7127;49.372;8.166;2023-05-10T03:10:19;0.70;;;0.60;;
14100;SDS011;7127;49.372;8.166;2023-05-10T03:13:01;0.67;;;0.57;;
14100;SDS011;7127;49.372;8.166;2023-05-10T03:15:42;2.00;;;0.80;;
14100;SDS011;7127;49.372;8.166;2023-05-10T03:18:15;1.57;;;0.70;;
14100;SDS011;7127;49.372;8.166;2023-05-10T03:20:46;0.80;;;0.70;;
14100;SDS011;7127;49.372;8.166;2023-05-10T03:23:18;0.70;;;0.70;;
14100;SDS011;7127;49.372;8.166;2023-05-10T03:25:49;1.07;;;0.80;;
14100;SDS011;7127;49.372;8.166;2023-05-10T03:28:18;0.60;;;0.60;;
14100;SDS011;7127;49.372;8.166;2023-05-10T03:30:47;1.43;;;0.67;;
14100;SDS011;7127;49.372;8.166;2023-05-10T03:33:15;0.60;;;0.60;;
14100;SDS011;7127;49.372;8.166;2023-05-10T03:35:42;0.67;;;0.67;;
14100;SDS011;7127;49.372;8.166;2023-05-10T03:38:10;0.70;;;0.70;;
14100;SDS011;7127;49.372;8.166;2023-05-10T03:40:37;0.80;;;0.80;;
14100;SDS011;7127;49.372;8.166;2023-05-10T03:43:04;0.70;;;0.70;;
14100;SDS011;7127;49.372;8.166;2023-05-10T03:45:33;0.60;;;0.60;;
14100;SDS011;7127;49.372;8.166;2023-05-10T03:48:00;0.83;;;0.60;;
14100;SDS011;7127;49.372;8.166;2023-05-10T03:50:27;2.00;;;0.80;;
14100;SDS011;7127;49.372;8.166;2023-05-10T03:52:53;0.87;;;0.80;;
14100;SDS011;7127;49.372;8.166;2023-05-10T03:55:20;0.60;;;0.60;;
14100;SDS011;7127;49.372;8.166;2023-05-10T03:57:47;0.80;;;0.73;;
14100;SDS011;7127;49.372;8.166;2023-05-10T04:00:14;1.00;;;0.90;;
14100;SDS011;7127;49.372;8.166;2023-05-10T04:02:43;1.53;;;0.90;;
14100;SDS011;7127;49.372;8.166;2023-05-10T04:05:10;0.60;;;0.60;;
14100;SDS011;7127;49.372;8.166;2023-05-10T04:07:37;0.80;;;0.80;;
14100;SDS011;7127;49.372;8.166;2023-05-10T04:10:04;0.87;;;0.70;;
14100;SDS011;7127;49.372;8.166;2023-05-10T04:12:32;0.80;;;0.80;;
14100;SDS011;7127;49.372;8.166;2023-05-10T04:14:58;0.70;;;0.70;;
14100;SDS011;7127;49.372;8.166;2023-05-10T04:17:26;1.17;;;0.70;;
14100;SDS011;7127;49.372;8.166;2023-05-10T04:19:54;0.80;;;0.80;;
14100;SDS011;7127;49.372;8.166;2023-05-10T04:22:22;1.00;;;0.83;;
14100;SDS011;7127;49.372;8.166;2023-05-10T04:24:49;0.87;;;0.87;;
14100;SDS011;7127;49.372;8.166;2023-05-10T04:27:15;0.67;;;0.67;;
14100;SDS011;7127;49.372;8.166;2023-05-10T04:29:42;1.33;;;0.80;;
14100;SDS011;7127;49.372;8.166;2023-05-10T04:32:09;0.70;;;0.70;;
14100;SDS011;7127;49.372;8.166;2023-05-10T04:34:36;0.70;;;0.70;;
14100;SDS011;7127;49.372;8.166;2023-05-10T04:37:04;0.70;;;0.70;;
14100;SDS011;7127;49.372;8.166;2023-05-10T04:39:32;3.03;;;1.40;;
14100;SDS011;7127;49.372;8.166;2023-05-10T04:42:00;1.43;;;0.97;;
14100;SDS011;7127;49.372;8.166;2023-05-10T04:44:27;0.80;;;0.80;;
14100;SDS011;7127;49.372;8.166;2023-05-10T04:46:54;0.70;;;0.70;;
14100;SDS011;7127;49.372;8.166;2023-05-10T04:49:21;0.70;;;0.70;;
14100;SDS011;7127;49.372;8.166;2023-05-10T04:51:48;0.70;;;0.70;;
14100;SDS011;7127;49.372;8.166;2023-05-10T04:54:16;0.70;;;0.70;;
14100;SDS011;7127;49.372;8.166;2023-05-10T04:56:43;0.80;;;0.70;;
14100;SDS011;7127;49.372;8.166;2023-05-10T04:59:10;1.67;;;0.80;;
14100;SDS011;7127;49.372;8.166;2023-05-10T05:01:37;0.60;;;0.60;;
14100;SDS011;7127;49.372;8.166;2023-05-10T05:04:03;0.70;;;0.70;;
14100;SDS011;7127;49.372;8.166;2023-05-10T05:06:30;1.90;;;0.90;;
14100;SDS011;7127;49.372;8.166;2023-05-10T05:08:57;0.70;;;0.70;;
14100;SDS011;7127;49.372;8.166;2023-05-10T05:11:25;0.70;;;0.70;;
14100;SDS011;7127;49.372;8.166;2023-05-10T05:13:53;0.60;;;0.60;;
14100;SDS011;7127;49.372;8.166;2023-05-10T05:16:20;0.50;;;0.50;;
14100;SDS011;7127;49.372;8.166;2023-05-10T05:18:46;0.60;;;0.60;;
14100;SDS011;7127;49.372;8.166;2023-05-10T05:21:14;0.90;;;0.60;;
14100;SDS011;7127;49.372;8.166;2023-05-10T05:23:42;0.50;;;0.50;;
14100;SDS011;7127;49.372;8.166;2023-05-10T05:26:09;0.53;;;0.53;;
14100;SDS011;7127;49.372;8.166;2023-05-10T05:28:38;0.50;;;0.50;;
14100;SDS011;7127;49.372;8.166;2023-05-10T05:31:05;0.60;;;0.60;;
14100;SDS011;7127;49.372;8.166;2023-05-10T05:33:32;1.30;;;0.70;;
14100;SDS011;7127;49.372;8.166;2023-05-10T05:35:59;0.50;;;0.50;;
14100;SDS011;7127;49.372;8.166;2023-05-10T05:38:26;0.47;;;0.47;;
14100;SDS011;7127;49.372;8.166;2023-05-10T05:40:53;0.40;;;0.40;;
14100;SDS011;7127;49.372;8.166;2023-05-10T05:43:20;0.63;;;0.63;;
14100;SDS011;7127;49.372;8.166;2023-05-10T05:45:48;0.60;;;0.60;;
14100;SDS011;7127;49.372;8.166;2023-05-10T05:48:15;0.67;;;0.63;;
14100;SDS011;7127;49.372;8.166;2023-05-10T05:50:43;0.50;;;0.50;;
14100;SDS011;7127;49.372;8.166;2023-05-10T05:53:10;0.50;;;0.50;;
14100;SDS011;7127;49.372;8.166;2023-05-10T05:55:37;1.43;;;0.80;;
14100;SDS011;7127;49.372;8.166;2023-05-10T05:58:04;0.33;;;0.33;;
14100;SDS011;7127;49.372;8.166;2023-05-10T06:00:31;0.60;;;0.60;;
14100;SDS011;7127;49.372;8.166;2023-05-10T06:02:59;0.47;;;0.47;;
14100;SDS011;7127;49.372;8.166;2023-05-10T06:05:26;0.50;;;0.50;;
14100;SDS011;7127;49.372;8.166;2023-05-10T06:07:53;1.77;;;0.60;;
14100;SDS011;7127;49.372;8.166;2023-05-10T06:10:19;1.07;;;0.97;;
14100;SDS011;7127;49.372;8.166;2023-05-10T06:12:46;0.60;;;0.60;;
14100;SDS011;7127;49.372;8.166;2023-05-10T06:15:13;0.73;;;0.57;;
14100;SDS011;7127;49.372;8.166;2023-05-10T06:17:40;0.57;;;0.57;;
14100;SDS011;7127;49.372;8.166;2023-05-10T06:20:10;0.47;;;0.47;;
14100;SDS011;7127;49.372;8.166;2023-05-10T06:22:38;3.10;;;0.70;;
14100;SDS011;7127;49.372;8.166;2023-05-10T06:25:05;0.53;;;0.53;;
14100;SDS011;7127;49.372;8.166;2023-05-10T06:27:33;0.70;;;0.50;;
14100;SDS011;7127;49.372;8.166;2023-05-10T06:29:59;0.73;;;0.60;;
14100;SDS011;7127;49.372;8.166;2023-05-10T06:32:27;0.57;;;0.57;;
14100;SDS011;7127;49.372;8.166;2023-05-10T06:34:54;0.40;;;0.40;;
14100;SDS011;7127;49.372;8.166;2023-05-10T06:37:22;0.30;;;0.30;;
14100;SDS011;7127;49.372;8.166;2023-05-10T06:39:49;0.77;;;0.50;;
14100;SDS011;7127;49.372;8.166;2023-05-10T06:42:16;0.40;;;0.40;;
14100;SDS011;7127;49.372;8.166;2023-05-10T06:44:43;0.53;;;0.43;;
14100;SDS011;7127;49.372;8.166;2023-05-10T06:47:09;0.30;;;0.30;;
14100;SDS011;7127;49.372;8.166;2023-05-10T06:49:36;0.30;;;0.30;;
14100;SDS011;7127;49.372;8.166;2023-05-10T06:52:03;0.30;;;0.30;;
14100;SDS011;7127;49.372;8.166;2023-05-10T06:54:35;0.40;;;0.40;;
14100;SDS011;7127;49.372;8.166;2023-05-10T06:57:07;0.70;;;0.37;;
14100;SDS011;7127;49.372;8.166;2023-05-10T06:59:33;0.30;;;0.30;;
14100;SDS011;7127;49.372;8.166;2023-05-10T07:02:01;0.40;;;0.40;;
14100;SDS011;7127;49.372;8.166;2023-05-10T07:04:28;0.60;;;0.60;;
14100;SDS011;7127;49.372;8.166;2023-05-10T07:06:55;0.40;;;0.40;;
14100;SDS011;7127;49.372;8.166;2023-05-10T07:09:22;0.30;;;0.30;;
14100;SDS011;7127;49.372;8.166;2023-05-10T07:11:51;1.40;;;0.57;;
14100;SDS011;7127;49.372;8.166;2023-05-10T07:14:18;0.50;;;0.50;;
14100;SDS011;7127;49.372;8.166;2023-05-10T07:16:45;0.20;;;0.20;;
14100;SDS011;7127;49.372;8.166;2023-05-10T07:19:12;0.50;;;0.50;;
14100;SDS011;7127;49.372;8.166;2023-05-10T07:21:39;0.30;;;0.30;;
14100;SDS011;7127;49.372;8.166;2023-05-10T07:24:37;0.47;;;0.40;;
14100;SDS011;7127;49.372;8.166;2023-05-10T07:27:06;0.30;;;0.30;;
14100;SDS011;7127;49.372;8.166;2023-05-10T07:29:34;0.83;;;0.43;;
14100;SDS011;7127;49.372;8.166;2023-05-10T07:32:01;0.40;;;0.40;;
14100;SDS011;7127;49.372;8.166;2023-05-10T07:34:30;0.40;;;0.40;;
14100;SDS011;7127;49.372;8.166;2023-05-10T07:37:13;1.03;;;0.40;;
14100;SDS011;7127;49.372;8.166;2023-05-10T07:39:53;0.50;;;0.50;;
14100;SDS011;7127;49.372;8.166;2023-05-10T07:42:22;1.73;;;0.40;;
14100;SDS011;7127;49.372;8.166;2023-05-10T07:44:49;1.00;;;0.40;;
14100;SDS011;7127;49.372;8.166;2023-05-10T07:47:16;0.40;;;0.40;;
14100;SDS011;7127;49.372;8.166;2023-05-10T07:49:43;0.50;;;0.40;;
14100;SDS011;7127;49.372;8.166;2023-05-10T07:52:10;0.47;;;0.43;;
14100;SDS011;7127;49.372;8.166;2023-05-10T07:54:37;0.47;;;0.40;;
14100;SDS011;7127;49.372;8.166;2023-05-10T07:57:04;0.50;;;0.50;;
14100;SDS011;7127;49.372;8.166;2023-05-10T07:59:32;1.60;;;0.50;;
14100;SDS011;7127;49.372;8.166;2023-05-10T08:01:59;0.53;;;0.53;;
14100;SDS011;7127;49.372;8.166;2023-05-10T08:04:26;0.50;;;0.43;;
14100;SDS011;7127;49.372;8.166;2023-05-10T08:06:53;0.60;;;0.60;;
14100;SDS011;7127;49.372;8.166;2023-05-10T08:09:20;0.60;;;0.60;;
14100;SDS011;7127;49.372;8.166;2023-05-10T08:11:48;0.40;;;0.40;;
14100;SDS011;7127;49.372;8.166;2023-05-10T08:14:16;0.40;;;0.40;;
14100;SDS011;7127;49.372;8.166;2023-05-10T08:16:44;0.67;;;0.50;;
14100;SDS011;7127;49.372;8.166;2023-05-10T08:19:11;0.50;;;0.50;;
14100;SDS011;7127;49.372;8.166;2023-05-10T08:21:38;0.20;;;0.20;;
14100;SDS011;7127;49.372;8.166;2023-05-10T08:24:07;0.47;;;0.47;;
14100;SDS011;7127;49.372;8.166;2023-05-10T08:26:34;0.30;;;0.30;;
14100;SDS011;7127;49.372;8.166;2023-05-10T08:29:01;0.40;;;0.40;;
14100;SDS011;7127;49.372;8.166;2023-05-10T08:31:28;0.63;;;0.50;;
14100;SDS011;7127;49.372;8.166;2023-05-10T08:33:56;0.50;;;0.50;;
14100;SDS011;7127;49.372;8.166;2023-05-10T08:36:23;0.60;;;0.40;;
14100;SDS011;7127;49.372;8.166;2023-05-10T08:38:50;0.57;;;0.50;;
14100;SDS011;7127;49.372;8.166;2023-05-10T08:41:18;0.50;;;0.50;;
14100;SDS011;7127;49.372;8.166;2023-05-10T08:43:46;0.47;;;0.47;;
14100;SDS011;7127;49.372;8.166;2023-05-10T08:46:14;0.50;;;0.40;;
14100;SDS011;7127;49.372;8.166;2023-05-10T08:48:43;0.67;;;0.43;;
14100;SDS011;7127;49.372;8.166;2023-05-10T08:51:13;0.77;;;0.50;;
14100;SDS011;7127;49.372;8.166;2023-05-10T08:53:41;1.13;;;0.50;;
14100;SDS011;7127;49.372;8.166;2023-05-10T08:56:08;0.37;;;0.37;;
14100;SDS011;7127;49.372;8.166;2023-05-10T08:58:35;0.40;;;0.40;;
14100;SDS011;7127;49.372;8.166;2023-05-10T09:01:02;0.33;;;0.33;;
14100;SDS011;7127;49.372;8.166;2023-05-10T09:03:29;0.90;;;0.40;;
14100;SDS011;7127;49.372;8.166;2023-05-10T09:05:57;0.27;;;0.27;;
14100;SDS011;7127;49.372;8.166;2023-05-10T09:08:25;1.03;;;0.40;;
14100;SDS011;7127;49.372;8.166;2023-05-10T09:10:53;0.50;;;0.43;;
14100;SDS011;7127;49.372;8.166;2023-05-10T09:13:20;0.43;;;0.43;;
14100;SDS011;7127;49.372;8.166;2023-05-10T09:15:49;0.30;;;0.30;;
14100;SDS011;7127;49.372;8.166;2023-05-10T09:18:17;1.07;;;0.57;;
14100;SDS011;7127;49.372;8.166;2023-05-10T09:20:43;0.50;;;0.40;;
14100;SDS011;7127;49.372;8.166;2023-05-10T09:23:10;0.30;;;0.30;;
14100;SDS011;7127;49.372;8.166;2023-05-10T09:25:38;0.73;;;0.60;;
14100;SDS011;7127;49.372;8.166;2023-05-10T09:28:07;0.60;;;0.60;;
14100;SDS011;7127;49.372;8.166;2023-05-10T09:30:35;0.30;;;0.30;;
14100;SDS011;7127;49.372;8.166;2023-05-10T09:33:02;0.93;;;0.30;;
14100;SDS011;7127;49.372;8.166;2023-05-10T09:35:30;0.40;;;0.40;;
14100;SDS011;7127;49.372;8.166;2023-05-10T09:37:59;0.40;;;0.40;;
14100;SDS011;7127;49.372;8.166;2023-05-10T09:40:29;0.40;;;0.40;;
14100;SDS011;7127;49.372;8.166;2023-05-10T09:42:59;1.33;;;0.40;;
14100;SDS011;7127;49.372;8.166;2023-05-10T09:45:27;0.40;;;0.40;;
14100;SDS011;7127;49.372;8.166;2023-05-10T09:47:55;0.47;;;0.47;;
14100;SDS011;7127;49.372;8.166;2023-05-10T09:50:23;0.50;;;0.50;;
14100;SDS011;7127;49.372;8.166;2023-05-10T09:52:51;0.30;;;0.30;;
14100;SDS011;7127;49.372;8.166;2023-05-10T09:55:20;0.47;;;0.47;;
14100;SDS011;7127;49.372;8.166;2023-05-10T09:57:48;0.43;;;0.40;;
14100;SDS011;7127;49.372;8.166;2023-05-10T10:00:25;0.30;;;0.30;;
14100;SDS011;7127;49.372;8.166;2023-05-10T10:02:54;0.20;;;0.20;;
14100;SDS011;7127;49.372;8.166;2023-05-10T10:05:27;0.83;;;0.43;;
14100;SDS011;7127;49.372;8.166;2023-05-10T10:07:55;0.40;;;0.40;;
14100;SDS011;7127;49.372;8.166;2023-05-10T10:10:23;0.40;;;0.30;;
14100;SDS011;7127;49.372;8.166;2023-05-10T10:12:50;0.53;;;0.50;;
14100;SDS011;7127;49.372;8.166;2023-05-10T10:15:17;1.77;;;0.60;;
14100;SDS011;7127;49.372;8.166;2023-05-10T10:17:46;0.67;;;0.43;;
14100;SDS011;7127;49.372;8.166;2023-05-10T10:20:14;0.50;;;0.30;;
14100;SDS011;7127;49.372;8.166;2023-05-10T10:22:41;0.57;;;0.50;;
14100;SDS011;7127;49.372;8.166;2023-05-10T10:25:10;0.33;;;0.33;;
14100;SDS011;7127;49.372;8.166;2023-05-10T10:27:41;0.40;;;0.37;;
14100;SDS011;7127;49.372;8.166;2023-05-10T10:30:16;0.50;;;0.40;;
14100;SDS011;7127;49.372;8.166;2023-05-10T10:32:59;0.37;;;0.37;;
14100;SDS011;7127;49.372;8.166;2023-05-10T10:35:36;0.30;;;0.30;;
14100;SDS011;7127;49.372;8.166;2023-05-10T10:38:03;1.53;;;0.30;;
14100;SDS011;7127;49.372;8.166;2023-05-10T10:40:30;0.70;;;0.50;;
14100;SDS011;7127;49.372;8.166;2023-05-10T10:43:20;0.40;;;0.40;;
14100;SDS011;7127;49.372;8.166;2023-05-10T10:45:48;0.47;;;0.47;;
14100;SDS011;7127;49.372;8.166;2023-05-10T10:48:37;1.30;;;0.77;;
14100;SDS011;7127;49.372;8.166;2023-05-10T10:51:05;3.33;;;0.60;;
14100;SDS011;7127;49.372;8.166;2023-05-10T10:53:32;0.90;;;0.40;;
14100;SDS011;7127;49.372;8.166;2023-05-10T10:56:04;0.83;;;0.30;;
14100;SDS011;7127;49.372;8.166;2023-05-10T10:58:34;0.60;;;0.50;;
14100;SDS011;7127;49.372;8.166;2023-05-10T11:01:12;0.43;;;0.43;;
14100;SDS011;7127;49.372;8.166;2023-05-10T11:03:54;0.50;;;0.50;;
14100;SDS011;7127;49.372;8.166;2023-05-10T11:06:47;0.50;;;0.30;;
14100;SDS011;7127;49.372;8.166;2023-05-10T11:09:14;1.10;;;0.63;;
14100;SDS011;7127;49.372;8.166;2023-05-10T11:11:51;0.47;;;0.47;;
14100;SDS011;7127;49.372;8.166;2023-05-10T11:14:20;0.57;;;0.40;;
14100;SDS011;7127;49.372;8.166;2023-05-10T11:16:48;0.80;;;0.60;;
14100;SDS011;7127;49.372;8.166;2023-05-10T11:19:17;0.83;;;0.60;;
14100;SDS011;7127;49.372;8.166;2023-05-10T11:21:45;1.13;;;0.50;;
14100;SDS011;7127;49.372;8.166;2023-05-10T11:24:14;0.53;;;0.33;;
14100;SDS011;7127;49.372;8.166;2023-05-10T11:26:42;1.77;;;0.63;;
14100;SDS011;7127;49.372;8.166;2023-05-10T11:29:09;0.80;;;0.43;;
14100;SDS011;7127;49.372;8.166;2023-05-10T11:31:41;0.53;;;0.53;;
14100;SDS011;7127;49.372;8.166;2023-05-10T11:34:09;2.27;;;0.87;;
14100;SDS011;7127;49.372;8.166;2023-05-10T11:36:39;0.70;;;0.50;;
14100;SDS011;7127;49.372;8.166;2023-05-10T11:39:06;1.93;;;0.60;;
14100;SDS011;7127;49.372;8.166;2023-05-10T11:41:34;0.90;;;0.70;;
14100;SDS011;7127;49.372;8.166;2023-05-10T11:44:01;0.47;;;0.37;;
14100;SDS011;7127;49.372;8.166;2023-05-10T11:46:28;0.90;;;0.50;;
14100;SDS011;7127;49.372;8.166;2023-05-10T11:48:56;0.50;;;0.50;;
14100;SDS011;7127;49.372;8.166;2023-05-10T11:51:25;0.47;;;0.30;;
14100;SDS011;7127;49.372;8.166;2023-05-10T11:53:54;0.47;;;0.37;;
14100;SDS011;7127;49.372;8.166;2023-05-10T11:56:22;0.40;;;0.40;;
14100;SDS011;7127;49.372;8.166;2023-05-10T11:58:54;0.37;;;0.27;;
14100;SDS011;7127;49.372;8.166;2023-05-10T12:01:22;0.40;;;0.23;;
14100;SDS011;7127;49.372;8.166;2023-05-10T12:03:50;0.73;;;0.40;;
14100;SDS011;7127;49.372;8.166;2023-05-10T12:06:19;0.90;;;0.40;;
14100;SDS011;7127;49.372;8.166;2023-05-10T12:08:47;0.80;;;0.50;;
14100;SDS011;7127;49.372;8.166;2023-05-10T12:11:18;0.40;;;0.40;;
14100;SDS011;7127;49.372;8.166;2023-05-10T12:13:46;0.40;;;0.33;;
14100;SDS011;7127;49.372;8.166;2023-05-10T12:16:15;1.47;;;0.30;;
14100;SDS011;7127;49.372;8.166;2023-05-10T12:18:43;0.67;;;0.40;;
14100;SDS011;7127;49.372;8.166;2023-05-10T12:21:11;1.80;;;0.37;;
14100;SDS011;7127;49.372;8.166;2023-05-10T12:23:38;0.97;;;0.50;;
14100;SDS011;7127;49.372;8.166;2023-05-10T12:26:05;0.50;;;0.30;;
14100;SDS011;7127;49.372;8.166;2023-05-10T12:28:34;1.63;;;0.53;;
14100;SDS011;7127;49.372;8.166;2023-05-10T12:31:01;0.73;;;0.33;;
14100;SDS011;7127;49.372;8.166;2023-05-10T12:33:35;0.47;;;0.30;;
14100;SDS011;7127;49.372;8.166;2023-05-10T12:36:04;1.53;;;0.70;;
14100;SDS011;7127;49.372;8.166;2023-05-10T12:38:32;0.33;;;0.30;;
14100;SDS011;7127;49.372;8.166;2023-05-10T12:41:00;0.33;;;0.20;;
14100;SDS011;7127;49.372;8.166;2023-05-10T12:43:28;0.70;;;0.40;;
14100;SDS011;7127;49.372;8.166;2023-05-10T12:45:57;0.40;;;0.30;;
14100;SDS011;7127;49.372;8.166;2023-05-10T12:48:24;0.33;;;0.30;;
14100;SDS011;7127;49.372;8.166;2023-05-10T12:50:53;0.47;;;0.40;;
14100;SDS011;7127;49.372;8.166;2023-05-10T12:53:20;0.47;;;0.40;;
14100;SDS011;7127;49.372;8.166;2023-05-10T12:55:47;0.23;;;0.20;;
14100;SDS011;7127;49.372;8.166;2023-05-10T12:58:14;0.30;;;0.30;;
14100;SDS011;7127;49.372;8.166;2023-05-10T13:00:41;0.30;;;0.20;;
14100;SDS011;7127;49.372;8.166;2023-05-10T13:03:10;0.47;;;0.20;;
14100;SDS011;7127;49.372;8.166;2023-05-10T13:05:37;0.83;;;0.47;;
14100;SDS011;7127;49.372;8.166;2023-05-10T13:08:04;0.30;;;0.30;;
14100;SDS011;7127;49.372;8.166;2023-05-10T13:10:31;0.70;;;0.33;;
14100;SDS011;7127;49.372;8.166;2023-05-10T13:12:58;0.20;;;0.17;;
14100;SDS011;7127;49.372;8.166;2023-05-10T13:15:25;0.70;;;0.40;;
14100;SDS011;7127;49.372;8.166;2023-05-10T13:17:53;0.30;;;0.20;;
14100;SDS011;7127;49.372;8.166;2023-05-10T13:20:22;0.60;;;0.40;;
14100;SDS011;7127;49.372;8.166;2023-05-10T13:22:49;0.20;;;0.20;;
14100;SDS011;7127;49.372;8.166;2023-05-10T13:25:16;0.47;;;0.17;;
14100;SDS011;7127;49.372;8.166;2023-05-10T13:27:43;0.40;;;0.30;;
14100;SDS011;7127;49.372;8.166;2023-05-10T13:30:10;0.20;;;0.10;;
14100;SDS011;7127;49.372;8.166;2023-05-10T13:32:37;1.43;;;0.40;;
14100;SDS011;7127;49.372;8.166;2023-05-10T13:35:05;0.50;;;0.40;;
14100;SDS011;7127;49.372;8.166;2023-05-10T13:37:34;1.20;;;0.40;;
14100;SDS011;7127;49.372;8.166;2023-05-10T13:40:02;0.23;;;0.20;;
14100;SDS011;7127;49.372;8.166;2023-05-10T13:42:30;0.53;;;0.17;;
14100;SDS011;7127;49.372;8.166;2023-05-10T13:44:58;0.40;;;0.20;;
14100;SDS011;7127;49.372;8.166;2023-05-10T13:47:26;0.53;;;0.30;;
14100;SDS011;7127;49.372;8.166;2023-05-10T13:49:52;0.60;;;0.20;;
14100;SDS011;7127;49.372;8.166;2023-05-10T13:52:19;0.10;;;0.10;;
14100;SDS011;7127;49.372;8.166;2023-05-10T13:54:48;0.30;;;0.20;;
14100;SDS011;7127;49.372;8.166;2023-05-10T13:57:17;0.00;;;0.00;;
14100;SDS011;7127;49.372;8.166;2023-05-10T13:59:44;0.10;;;0.10;;
14100;SDS011;7127;49.372;8.166;2023-05-10T14:02:11;0.87;;;0.30;;
14100;SDS011;7127;49.372;8.166;2023-05-10T14:04:38;0.40;;;0.17;;
14100;SDS011;7127;49.372;8.166;2023-05-10T14:07:06;0.53;;;0.10;;
14100;SDS011;7127;49.372;8.166;2023-05-10T14:09:33;0.43;;;0.20;;
14100;SDS011;7127;49.372;8.166;2023-05-10T14:12:01;0.30;;;0.27;;
14100;SDS011;7127;49.372;8.166;2023-05-10T14:14:28;0.20;;;0.20;;
14100;SDS011;7127;49.372;8.166;2023-05-10T14:16:55;0.10;;;0.10;;
14100;SDS011;7127;49.372;8.166;2023-05-10T14:19:22;0.80;;;0.30;;
14100;SDS011;7127;49.372;8.166;2023-05-10T14:21:49;0.20;;;0.20;;
14100;SDS011;7127;49.372;8.166;2023-05-10T14:24:17;0.40;;;0.20;;
14100;SDS011;7127;49.372;8.166;2023-05-10T14:26:44;0.20;;;0.20;;
14100;SDS011;7127;49.372;8.166;2023-05-10T14:29:12;0.20;;;0.20;;
14100;SDS011;7127;49.372;8.166;2023-05-10T14:31:39;0.20;;;0.20;;
14100;SDS011;7127;49.372;8.166;2023-05-10T14:34:06;0.60;;;0.30;;
14100;SDS011;7127;49.372;8.166;2023-05-10T14:36:33;0.70;;;0.30;;
14100;SDS011;7127;49.372;8.166;2023-05-10T14:39:00;0.20;;;0.20;;
14100;SDS011;7127;49.372;8.166;2023-05-10T14:41:27;1.03;;;0.23;;
14100;SDS011;7127;49.372;8.166;2023-05-10T14:43:55;0.20;;;0.20;;
14100;SDS011;7127;49.372;8.166;2023-05-10T14:46:23;0.30;;;0.20;;
14100;SDS011;7127;49.372;8.166;2023-05-10T14:48:50;0.80;;;0.30;;
14100;SDS011;7127;49.372;8.166;2023-05-10T14:51:17;0.30;;;0.20;;
14100;SDS011;7127;49.372;8.166;2023-05-10T14:53:46;0.10;;;0.10;;
14100;SDS011;7127;49.372;8.166;2023-05-10T14:56:14;0.90;;;0.30;;
14100;SDS011;7127;49.372;8.166;2023-05-10T14:58:41;0.30;;;0.23;;
14100;SDS011;7127;49.372;8.166;2023-05-10T15:01:08;0.10;;;0.10;;
14100;SDS011;7127;49.372;8.166;2023-05-10T15:03:36;0.80;;;0.47;;
14100;SDS011;7127;49.372;8.166;2023-05-10T15:06:03;0.10;;;0.10;;
14100;SDS011;7127;49.372;8.166;2023-05-10T15:08:30;0.60;;;0.20;;
14100;SDS011;7127;49.372;8.166;2023-05-10T15:10:57;0.30;;;0.30;;